Time;durP1;ratioP1;P1;durP2;ratioP2;P2;SDS_P1;SDS_P2;PMS_P1;PMS_P2;Temp;Humidity;BMP_temperature;BMP_pressure;BME280_temperature;BME280_humidity;BME280_pressure;Samples;Min_cycle;Max_cycle;Signal;HPM_P1;HPM_P2
2023/05/23 00:00:14;;;;;;;25.38;11.02;;;;;;;13.74;100.00;102111.44;4967708;28;20569;-61
2023/05/23 00:02:40;;;;;;;22.70;10.95;;;;;;;13.83;100.00;102119.13;4966945;28;20462;-59
2023/05/23 00:05:06;;;;;;;22.60;10.18;;;;;;;13.86;100.00;102116.41;4967575;28;20045;-59
2023/05/23 00:07:32;;;;;;;22.98;9.88;;;;;;;13.72;100.00;102122.06;4966715;28;20042;-62
2023/05/23 00:09:57;;;;;;;17.15;9.30;;;;;;;13.67;100.00;102109.84;4978131;28;20037;-59
2023/05/23 00:12:22;;;;;;;19.50;10.35;;;;;;;13.84;100.00;102126.16;4986893;28;20054;-62
2023/05/23 00:14:48;;;;;;;21.20;9.98;;;;;;;13.74;100.00;102120.25;4985264;28;20040;-59
2023/05/23 00:17:16;;;;;;;18.33;8.52;;;;;;;13.63;100.00;102123.19;4986045;28;20069;-60
2023/05/23 00:19:44;;;;;;;19.67;8.45;;;;;;;13.69;100.00;102121.28;4987146;28;20436;-60
2023/05/23 00:22:10;;;;;;;23.60;9.60;;;;;;;13.68;100.00;102123.06;4997320;28;20109;-61
2023/05/23 00:24:36;;;;;;;18.38;8.50;;;;;;;13.77;100.00;102120.19;4987090;28;20033;-62
2023/05/23 00:27:01;;;;;;;18.73;8.98;;;;;;;13.76;100.00;102122.88;4988413;28;20100;-60
2023/05/23 00:29:26;;;;;;;18.73;9.25;;;;;;;13.86;100.00;102129.66;4982419;28;20113;-58
2023/05/23 00:31:52;;;;;;;24.05;9.18;;;;;;;13.92;100.00;102125.06;4969846;28;20058;-61
2023/05/23 00:34:17;;;;;;;21.85;10.13;;;;;;;13.81;100.00;102126.25;4969474;28;20030;-61
2023/05/23 00:36:43;;;;;;;34.22;10.45;;;;;;;13.80;100.00;102127.16;4970214;28;20037;-64
2023/05/23 00:39:08;;;;;;;30.65;10.80;;;;;;;13.71;100.00;102130.03;4971043;28;20019;-59
2023/05/23 00:41:35;;;;;;;29.05;10.25;;;;;;;13.89;100.00;102134.00;4970173;28;20067;-64
2023/05/23 00:44:00;;;;;;;24.92;9.40;;;;;;;13.79;100.00;102135.16;4989323;28;20197;-60
2023/05/23 00:46:26;;;;;;;26.67;9.85;;;;;;;13.80;100.00;102143.06;4988494;28;20450;-62
2023/05/23 00:48:52;;;;;;;31.35;10.48;;;;;;;13.82;100.00;102137.72;4987434;28;20041;-59
2023/05/23 00:51:18;;;;;;;35.17;11.10;;;;;;;13.90;100.00;102144.53;4972513;28;20116;-57
2023/05/23 00:53:43;;;;;;;31.15;10.98;;;;;;;13.84;100.00;102125.28;4988995;28;20121;-60
2023/05/23 00:56:11;;;;;;;26.25;10.18;;;;;;;13.85;100.00;102143.78;4976925;28;20033;-60
2023/05/23 00:58:36;;;;;;;31.48;10.30;;;;;;;13.71;100.00;102128.28;4969024;28;20027;-61
2023/05/23 01:01:01;;;;;;;29.80;10.18;;;;;;;13.81;100.00;102131.53;4969805;28;20736;-56
2023/05/23 01:03:27;;;;;;;28.60;10.70;;;;;;;13.95;100.00;102125.00;4968306;28;20105;-61
2023/05/23 01:05:53;;;;;;;31.33;10.50;;;;;;;14.00;100.00;102131.91;4969845;28;20109;-60
2023/05/23 01:08:19;;;;;;;26.63;11.23;;;;;;;14.02;100.00;102137.16;4973890;28;20030;-59
2023/05/23 01:10:45;;;;;;;32.38;11.10;;;;;;;13.80;100.00;102148.34;4989238;28;20026;-59
2023/05/23 01:13:33;;;;;;;30.25;10.27;;;;;;;13.87;100.00;102149.03;4988901;28;20113;-59
2023/05/23 01:16:07;;;;;;;31.40;10.20;;;;;;;13.95;100.00;102139.13;4967299;28;20145;-60
2023/05/23 01:19:01;;;;;;;23.08;9.80;;;;;;;13.97;100.00;102131.13;4969795;28;20061;-58
2023/05/23 01:21:26;;;;;;;29.40;11.23;;;;;;;13.85;100.00;102127.88;4969241;28;20034;-61
2023/05/23 01:24:02;;;;;;;29.98;9.60;;;;;;;13.62;100.00;102139.97;4982388;28;20539;-60
2023/05/23 01:26:49;;;;;;;32.78;9.50;;;;;;;13.84;100.00;102146.47;5007684;28;20080;-60
2023/05/23 01:29:19;;;;;;;23.42;9.68;;;;;;;13.90;100.00;102149.84;4994542;28;20444;-61
2023/05/23 01:31:45;;;;;;;32.28;9.70;;;;;;;14.02;100.00;102146.00;4988046;28;20033;-61
2023/05/23 01:34:12;;;;;;;27.17;10.07;;;;;;;13.99;100.00;102138.13;4986923;28;20033;-62
2023/05/23 01:36:41;;;;;;;22.67;8.68;;;;;;;13.94;100.00;102150.63;4987815;28;20050;-60
2023/05/23 01:39:07;;;;;;;23.08;8.38;;;;;;;14.00;100.00;102145.16;4988357;28;20022;-60
2023/05/23 01:41:32;;;;;;;28.40;9.15;;;;;;;14.01;100.00;102153.97;4988590;28;20022;-60
2023/05/23 01:43:57;;;;;;;27.23;8.70;;;;;;;13.97;100.00;102149.69;4988935;28;20026;-59
2023/05/23 01:46:24;;;;;;;26.08;8.32;;;;;;;13.90;100.00;102148.97;4986957;28;20034;-63
2023/05/23 01:48:49;;;;;;;30.70;9.93;;;;;;;13.96;100.00;102142.63;4987418;28;20478;-59
2023/05/23 01:51:15;;;;;;;35.92;9.55;;;;;;;13.93;100.00;102148.88;4988057;28;20023;-61
2023/05/23 01:53:40;;;;;;;28.63;8.68;;;;;;;13.92;100.00;102157.75;4985610;28;20027;-59
2023/05/23 01:56:07;;;;;;;26.75;7.65;;;;;;;13.95;100.00;102149.72;4967139;28;20053;-62
2023/05/23 01:58:32;;;;;;;28.02;8.77;;;;;;;14.00;100.00;102152.25;4966447;28;20035;-64
2023/05/23 02:00:58;;;;;;;34.42;8.73;;;;;;;13.96;100.00;102154.09;4966361;28;20019;-59
2023/05/23 02:03:23;;;;;;;25.90;8.50;;;;;;;14.05;100.00;102145.03;4967797;28;20034;-58
2023/05/23 02:05:48;;;;;;;25.70;8.32;;;;;;;14.12;100.00;102141.28;4968364;28;20050;-62
2023/05/23 02:08:14;;;;;;;30.42;8.07;;;;;;;14.05;100.00;102145.03;4982178;28;20041;-59
2023/05/23 02:10:39;;;;;;;33.85;8.82;;;;;;;13.98;100.00;102159.38;4988935;28;20093;-59
2023/05/23 02:13:05;;;;;;;31.50;8.57;;;;;;;13.95;100.00;102149.72;4988230;28;20014;-63
2023/05/23 02:15:30;;;;;;;26.10;7.50;;;;;;;14.00;100.00;102157.56;4989614;28;20022;-57
2023/05/23 02:17:55;;;;;;;28.98;7.70;;;;;;;13.92;100.00;102159.53;4987449;28;20030;-62
2023/05/23 02:20:21;;;;;;;23.42;7.88;;;;;;;13.98;100.00;102154.06;4988129;28;20633;-62
2023/05/23 02:22:46;;;;;;;33.13;8.40;;;;;;;13.97;100.00;102154.97;4988351;28;20034;-58
2023/05/23 02:25:12;;;;;;;30.60;8.45;;;;;;;13.93;100.00;102167.44;4988078;28;20034;-61
2023/05/23 02:27:37;;;;;;;30.65;8.15;;;;;;;14.00;100.00;102168.16;4987915;28;20058;-60
2023/05/23 02:30:02;;;;;;;32.55;8.38;;;;;;;13.97;100.00;102168.22;4988068;28;20034;-60
2023/05/23 02:32:28;;;;;;;36.50;8.20;;;;;;;13.88;100.00;102169.34;4987220;28;20045;-61
2023/05/23 02:34:54;;;;;;;32.47;8.00;;;;;;;13.96;100.00;102182.38;4988238;28;20373;-61
2023/05/23 02:37:19;;;;;;;26.98;7.47;;;;;;;13.99;100.00;102182.28;4988046;28;20034;-60
2023/05/23 02:39:45;;;;;;;34.33;8.00;;;;;;;13.81;100.00;102181.03;4984604;28;20026;-59
2023/05/23 02:42:10;;;;;;;24.98;7.28;;;;;;;13.77;100.00;102188.16;4969294;28;20034;-62
2023/05/23 02:44:35;;;;;;;29.80;7.53;;;;;;;13.80;100.00;102187.22;4968339;28;20053;-60
2023/05/23 02:47:01;;;;;;;32.53;6.90;;;;;;;13.81;100.00;102187.16;4982183;28;20030;-59
2023/05/23 02:49:26;;;;;;;28.77;7.78;;;;;;;13.90;100.00;102197.53;4967282;28;20037;-56
2023/05/23 02:51:51;;;;;;;27.48;7.03;;;;;;;13.81;100.00;102199.56;4967801;28;20089;-59
2023/05/23 02:54:17;;;;;;;34.97;6.82;;;;;;;13.84;100.00;102199.47;4968335;28;20027;-60
2023/05/23 02:56:44;;;;;;;30.67;6.30;;;;;;;13.68;100.00;102197.22;4968253;28;20031;-65
2023/05/23 02:59:11;;;;;;;24.70;5.95;;;;;;;13.72;100.00;102200.66;4968628;28;20476;-57
2023/05/23 03:01:36;;;;;;;32.50;6.32;;;;;;;13.74;100.00;102206.78;4969261;28;20078;-61
2023/05/23 03:04:01;;;;;;;18.38;5.80;;;;;;;13.70;100.00;102203.34;5006230;28;20030;-62
2023/05/23 03:06:27;;;;;;;19.02;5.38;;;;;;;13.62;100.00;102200.91;4990602;28;20039;-59
2023/05/23 03:08:52;;;;;;;31.52;6.10;;;;;;;13.70;100.00;102202.47;4968417;28;20106;-60
2023/05/23 03:11:18;;;;;;;23.08;5.53;;;;;;;13.68;100.00;102199.88;4967994;28;20031;-61
2023/05/23 03:13:43;;;;;;;29.92;6.55;;;;;;;13.69;100.00;102200.75;4968012;28;20085;-59
2023/05/23 03:16:10;;;;;;;26.05;6.15;;;;;;;13.68;100.00;102199.88;4968231;28;20057;-57
2023/05/23 03:18:35;;;;;;;20.15;5.18;;;;;;;13.70;100.00;102199.84;4986168;28;20053;-58
2023/05/23 03:21:01;;;;;;;24.65;5.45;;;;;;;13.74;100.00;102204.13;4987176;28;20377;-59
2023/05/23 03:23:26;;;;;;;14.73;4.85;;;;;;;13.39;100.00;102206.72;4987105;28;20676;-59
2023/05/23 03:25:51;;;;;;;22.95;5.78;;;;;;;13.33;100.00;102206.88;4986069;28;20649;-59
2023/05/23 03:28:17;;;;;;;13.05;4.40;;;;;;;13.30;100.00;102207.78;4987084;28;20428;-62
2023/05/23 03:30:42;;;;;;;22.38;5.43;;;;;;;13.34;100.00;102212.09;4987624;28;20029;-65
2023/05/23 03:33:08;;;;;;;15.90;5.97;;;;;;;13.41;100.00;102212.84;4986952;28;20097;-59
2023/05/23 03:35:33;;;;;;;16.48;6.97;;;;;;;13.31;100.00;102206.03;4992866;28;20030;-58
2023/05/23 03:37:58;;;;;;;17.30;6.68;;;;;;;13.34;100.00;102206.81;4986973;28;20077;-59
2023/05/23 03:40:24;;;;;;;23.33;8.02;;;;;;;13.32;100.00;102213.94;4986386;28;20532;-57
2023/05/23 03:43:04;;;;;;;15.88;7.35;;;;;;;13.29;100.00;102207.84;4987512;28;20496;-58
2023/05/23 03:45:30;;;;;;;16.33;7.60;;;;;;;13.23;100.00;102219.44;4976193;28;20042;-57
2023/05/23 03:47:56;;;;;;;18.08;6.88;;;;;;;13.30;100.00;102221.03;4971253;28;20035;-62
2023/05/23 03:50:21;;;;;;;19.05;5.97;;;;;;;13.39;100.00;102215.53;4967792;28;20034;-57
2023/05/23 03:52:47;;;;;;;13.18;5.05;;;;;;;13.35;100.00;102229.75;4966982;28;20031;-61
2023/05/23 03:55:12;;;;;;;18.45;4.00;;;;;;;13.11;100.00;102232.06;4971421;28;20085;-63
2023/05/23 03:57:37;;;;;;;17.95;5.15;;;;;;;12.93;100.00;102227.16;4982780;28;20048;-57
2023/05/23 04:00:05;;;;;;;17.70;6.82;;;;;;;13.10;100.00;102229.44;4989182;28;20465;-56
2023/05/23 04:02:31;;;;;;;19.52;7.93;;;;;;;13.19;100.00;102239.81;4988805;28;20022;-58
2023/05/23 04:04:56;;;;;;;17.85;7.45;;;;;;;13.11;100.00;102233.81;4979399;28;20034;-60
2023/05/23 04:07:22;;;;;;;30.48;6.82;;;;;;;13.05;100.00;102248.06;4990728;28;20354;-59
2023/05/23 04:09:47;;;;;;;22.52;6.40;;;;;;;12.97;100.00;102245.56;4990412;28;20031;-55
2023/05/23 04:12:13;;;;;;;15.73;4.40;;;;;;;13.01;100.00;102254.34;4990987;28;20368;-60
2023/05/23 04:14:38;;;;;;;16.20;4.97;;;;;;;13.01;100.00;102244.59;4990530;28;20462;-59
2023/05/23 04:17:04;;;;;;;22.65;4.80;;;;;;;12.93;100.00;102246.56;4989391;28;20030;-58
2023/05/23 04:19:29;;;;;;;16.08;4.55;;;;;;;13.00;100.00;102255.22;4990246;28;20029;-61
2023/05/23 04:21:55;;;;;;;13.73;4.45;;;;;;;12.99;100.00;102258.78;4990243;28;20030;-60
2023/05/23 04:24:20;;;;;;;19.27;5.68;;;;;;;13.00;100.00;102260.50;4989439;28;20473;-59
2023/05/23 04:26:45;;;;;;;20.23;5.68;;;;;;;13.02;100.00;102262.25;4990515;28;20018;-57
2023/05/23 04:29:11;;;;;;;21.90;5.10;;;;;;;12.91;100.00;102252.78;4990523;28;20018;-59
2023/05/23 04:31:37;;;;;;;31.00;5.75;;;;;;;12.72;100.00;102269.03;4988943;28;20030;-63
2023/05/23 04:34:02;;;;;;;17.77;4.93;;;;;;;12.85;100.00;102269.63;4990010;28;20061;-60
2023/05/23 04:36:29;;;;;;;16.58;5.38;;;;;;;12.77;100.00;102264.53;4989836;28;20080;-58
2023/05/23 04:38:54;;;;;;;23.17;5.95;;;;;;;12.74;100.00;102264.59;4989536;28;20113;-58
2023/05/23 04:41:22;;;;;;;22.88;6.15;;;;;;;12.80;100.00;102276.81;4990398;28;20117;-58
2023/05/23 04:43:47;;;;;;;17.58;5.97;;;;;;;12.72;100.00;102277.84;4989600;28;20022;-58
2023/05/23 04:46:13;;;;;;;26.55;6.03;;;;;;;12.81;100.00;102274.13;4989179;28;20050;-60
2023/05/23 04:48:38;;;;;;;21.60;6.05;;;;;;;12.88;100.00;102273.09;4990241;28;20027;-59
2023/05/23 04:51:07;;;;;;;22.55;5.63;;;;;;;12.93;100.00;102274.78;4995667;28;20117;-60
2023/05/23 04:53:33;;;;;;;21.63;6.20;;;;;;;12.94;100.00;102293.25;4967835;28;20049;-57
2023/05/23 04:55:59;;;;;;;23.27;5.65;;;;;;;12.77;100.00;102305.03;4989355;28;20031;-56
2023/05/23 04:58:24;;;;;;;29.50;7.00;;;;;;;12.88;100.00;102294.25;4989045;28;20033;-56
2023/05/23 05:00:50;;;;;;;19.80;6.72;;;;;;;12.86;100.00;102303.13;4984395;28;20042;-56
2023/05/23 05:03:15;;;;;;;21.17;6.75;;;;;;;12.86;100.00;102296.06;4970878;28;20489;-58
2023/05/23 05:05:40;;;;;;;20.70;7.72;;;;;;;12.86;100.00;102306.63;4969793;28;20812;-56
2023/05/23 05:08:06;;;;;;;25.20;7.05;;;;;;;12.87;100.00;102308.41;4969291;28;20050;-55
2023/05/23 05:10:31;;;;;;;28.83;6.53;;;;;;;12.88;100.00;102304.84;4969542;28;20101;-60
2023/05/23 05:12:57;;;;;;;20.38;7.18;;;;;;;12.82;100.00;102304.97;4971220;28;20025;-60
2023/05/23 05:15:22;;;;;;;19.48;6.60;;;;;;;12.83;100.00;102306.72;4967742;28;20065;-60
2023/05/23 05:17:48;;;;;;;21.65;7.20;;;;;;;12.91;100.00;102305.69;4971439;28;20023;-59
2023/05/23 05:20:14;;;;;;;21.65;6.80;;;;;;;12.95;100.00;102310.00;4977428;28;20081;-60
2023/05/23 05:22:39;;;;;;;20.25;6.07;;;;;;;12.81;100.00;102319.09;4977940;28;20101;-58
2023/05/23 05:25:09;;;;;;;21.98;6.40;;;;;;;13.02;100.00;102327.50;4978527;28;20109;-60
2023/05/23 05:27:36;;;;;;;19.77;6.72;;;;;;;13.01;100.00;102323.13;4969930;28;20137;-60
2023/05/23 05:30:05;;;;;;;19.95;6.85;;;;;;;12.96;100.00;102324.97;4977740;28;20763;-58
2023/05/23 05:32:32;;;;;;;27.73;6.97;;;;;;;12.79;100.00;102326.19;4976240;28;20061;-60
2023/05/23 05:35:00;;;;;;;21.77;6.32;;;;;;;12.85;100.00;102317.25;4981296;28;20026;-57
2023/05/23 05:37:26;;;;;;;18.30;6.32;;;;;;;12.87;100.00;102329.56;4976941;28;20027;-62
2023/05/23 05:39:53;;;;;;;16.10;5.88;;;;;;;13.17;100.00;102328.09;4968951;28;20510;-61
2023/05/23 05:42:18;;;;;;;17.70;5.78;;;;;;;13.03;100.00;102334.53;4972381;28;20381;-61
2023/05/23 05:44:44;;;;;;;19.83;6.18;;;;;;;13.00;100.00;102339.88;4967868;28;20042;-63
2023/05/23 05:47:09;;;;;;;17.95;5.80;;;;;;;12.96;100.00;102341.72;4975568;28;20026;-58
2023/05/23 05:49:34;;;;;;;23.45;6.00;;;;;;;13.13;100.00;102344.03;4989171;28;20542;-58
2023/05/23 05:52:00;;;;;;;20.05;6.07;;;;;;;12.86;100.00;102338.38;4978551;28;20035;-62
2023/05/23 05:54:25;;;;;;;19.40;5.97;;;;;;;13.05;100.00;102350.38;4970695;28;20156;-59
2023/05/23 05:56:51;;;;;;;28.25;7.00;;;;;;;13.07;100.00;102348.59;4968898;28;20023;-61
2023/05/23 05:59:16;;;;;;;20.88;6.03;;;;;;;13.09;100.00;102346.75;4966959;28;20018;-62
2023/05/23 06:01:43;;;;;;;22.58;6.30;;;;;;;13.22;100.00;102339.47;4968659;28;20109;-59
2023/05/23 06:04:09;;;;;;;17.73;5.50;;;;;;;13.18;100.00;102335.13;4967385;28;20031;-59
2023/05/23 06:06:34;;;;;;;22.77;6.22;;;;;;;13.24;100.00;102353.50;4964724;28;20524;-58
2023/05/23 06:08:59;;;;;;;26.48;5.93;;;;;;;13.11;100.00;102353.78;4966014;28;20096;-59
2023/05/23 06:11:25;;;;;;;16.63;5.82;;;;;;;13.00;100.00;102356.63;4965183;28;20165;-62
2023/05/23 06:13:50;;;;;;;14.70;5.05;;;;;;;13.13;100.00;102361.69;4978508;28;20041;-59
2023/05/23 06:16:16;;;;;;;13.60;4.80;;;;;;;12.71;100.00;102370.44;4984197;28;20218;-63
2023/05/23 06:18:41;;;;;;;15.60;4.22;;;;;;;12.81;100.00;102364.06;4984309;28;20389;-60
2023/05/23 06:21:07;;;;;;;13.00;5.00;;;;;;;12.81;100.00;102361.41;4986921;28;20026;-62
2023/05/23 06:23:33;;;;;;;13.25;4.63;;;;;;;12.82;100.00;102357.00;4976621;28;20022;-60
2023/05/23 06:25:58;;;;;;;13.02;4.72;;;;;;;12.89;100.00;102362.13;4971578;28;20295;-55
2023/05/23 06:28:24;;;;;;;8.50;4.10;;;;;;;12.80;100.00;102357.03;4969026;28;20109;-61
2023/05/23 06:30:49;;;;;;;7.82;4.07;;;;;;;12.99;100.00;102360.19;4964817;28;20136;-61
2023/05/23 06:33:15;;;;;;;29.30;6.80;;;;;;;12.91;100.00;102367.41;4967538;28;20045;-56
2023/05/23 06:35:40;;;;;;;11.50;3.92;;;;;;;12.83;100.00;102361.38;4966726;28;20038;-61
2023/05/23 06:38:05;;;;;;;13.02;4.13;;;;;;;12.90;100.00;102368.31;4967095;28;20458;-56
2023/05/23 06:40:31;;;;;;;15.80;4.85;;;;;;;12.82;100.00;102368.44;4968624;28;20505;-61
2023/05/23 06:42:56;;;;;;;15.18;5.22;;;;;;;12.91;100.00;102361.25;4966643;28;20037;-58
2023/05/23 06:45:21;;;;;;;14.02;3.90;;;;;;;13.02;100.00;102369.84;4976324;28;20022;-60
2023/05/23 06:47:48;;;;;;;13.00;4.07;;;;;;;12.83;100.00;102369.31;4986156;28;20034;-59
2023/05/23 06:50:13;;;;;;;10.93;3.30;;;;;;;12.87;100.00;102374.53;4981926;28;20421;-58
2023/05/23 06:52:40;;;;;;;17.88;3.45;;;;;;;12.93;100.00;102377.94;4967738;28;20023;-61
2023/05/23 06:55:05;;;;;;;12.52;2.83;;;;;;;12.93;100.00;102373.53;4966052;28;20029;-59
2023/05/23 06:57:31;;;;;;;17.45;2.72;;;;;;;13.10;100.00;102383.78;4974232;28;20014;-58
2023/05/23 06:59:56;;;;;;;11.25;3.28;;;;;;;13.35;100.00;102377.13;4978447;28;20022;-60
2023/05/23 07:02:21;;;;;;;15.07;2.92;;;;;;;13.28;100.00;102373.75;4985533;28;20034;-61
2023/05/23 07:04:47;;;;;;;14.93;3.20;;;;;;;13.31;100.00;102386.91;4978808;28;20102;-59
2023/05/23 07:07:12;;;;;;;17.70;3.05;;;;;;;13.22;100.00;102381.81;4966679;28;20093;-64
2023/05/23 07:09:38;;;;;;;10.50;2.95;;;;;;;13.01;100.00;102379.53;4966151;28;20037;-61
2023/05/23 07:12:04;;;;;;;17.67;3.15;;;;;;;13.22;100.00;102379.16;4984792;28;20034;-60
2023/05/23 07:14:30;;;;;;;8.82;2.80;;;;;;;13.11;100.00;102382.00;4973201;28;20109;-60
2023/05/23 07:16:55;;;;;;;18.05;3.63;;;;;;;13.54;100.00;102376.78;4977949;28;20119;-60
2023/05/23 07:19:20;;;;;;;14.63;3.28;;;;;;;13.70;100.00;102385.25;4965678;28;20023;-60
2023/05/23 07:21:46;;;;;;;21.45;3.30;;;;;;;13.72;100.00;102386.94;4964314;28;20454;-61
2023/05/23 07:24:11;;;;;;;16.23;3.33;;;;;;;13.87;100.00;102391.03;4966765;28;20089;-59
2023/05/23 07:26:36;;;;;;;16.98;3.63;;;;;;;14.25;100.00;102392.81;4966853;28;20038;-59
2023/05/23 07:29:02;;;;;;;21.35;3.60;;;;;;;14.30;100.00;102396.19;4974373;28;20023;-61
2023/05/23 07:31:27;;;;;;;20.83;3.40;;;;;;;14.30;100.00;102400.66;4973375;28;20085;-59
2023/05/23 07:33:52;;;;;;;19.35;3.45;;;;;;;14.20;100.00;102397.34;4982600;28;20062;-61
2023/05/23 07:36:18;;;;;;;16.35;3.67;;;;;;;14.07;100.00;102405.59;4978840;28;20033;-57
2023/05/23 07:38:43;;;;;;;17.98;3.25;;;;;;;14.03;100.00;102401.28;4977149;28;20034;-62
2023/05/23 07:41:09;;;;;;;20.40;3.30;;;;;;;14.40;100.00;102402.16;4975165;28;20681;-60
2023/05/23 07:43:34;;;;;;;17.00;2.83;;;;;;;14.59;99.03;102407.88;4969638;28;20085;-59
2023/05/23 07:46:00;;;;;;;11.55;3.13;;;;;;;14.66;99.98;102406.78;4978072;28;20038;-62
2023/05/23 07:48:26;;;;;;;16.00;2.88;;;;;;;14.58;96.64;102407.91;4979203;28;20143;-59
2023/05/23 07:50:53;;;;;;;11.63;2.85;;;;;;;14.63;99.01;102412.16;4980066;28;20424;-61
2023/05/23 07:53:19;;;;;;;14.75;2.67;;;;;;;14.48;96.15;102396.66;4981934;28;20033;-60
2023/05/23 07:55:45;;;;;;;19.63;3.60;;;;;;;14.23;99.04;102407.88;4978334;28;20027;-59
2023/05/23 07:58:10;;;;;;;13.18;2.92;;;;;;;14.66;98.50;102413.91;4972229;28;20030;-59
2023/05/23 08:00:35;;;;;;;21.15;3.40;;;;;;;14.68;100.00;102409.41;4981470;28;20038;-60
2023/05/23 08:03:01;;;;;;;21.05;3.33;;;;;;;15.06;98.35;102413.75;4978418;28;20034;-61
2023/05/23 08:05:26;;;;;;;13.52;3.60;;;;;;;15.43;96.29;102409.16;4971008;28;20073;-61
2023/05/23 08:07:53;;;;;;;12.27;2.75;;;;;;;15.52;94.49;102417.75;4970139;28;20085;-59
2023/05/23 08:10:19;;;;;;;15.95;3.30;;;;;;;15.45;93.01;102415.31;4974352;28;20038;-60
2023/05/23 08:12:44;;;;;;;17.67;3.88;;;;;;;15.35;94.33;102417.38;4971693;28;20121;-58
2023/05/23 08:15:10;;;;;;;15.70;3.40;;;;;;;15.20;94.55;102418.69;4969648;28;20046;-63
2023/05/23 08:17:35;;;;;;;16.00;3.70;;;;;;;15.45;91.53;102421.50;4983289;28;20026;-60
2023/05/23 08:20:02;;;;;;;18.52;3.33;;;;;;;15.34;92.52;102424.47;4975646;28;20026;-62
2023/05/23 08:22:27;;;;;;;13.63;3.60;;;;;;;15.26;93.01;102421.19;4973302;28;20027;-59
2023/05/23 08:24:52;;;;;;;14.80;3.03;;;;;;;15.40;93.17;102424.28;4969967;28;20031;-61
2023/05/23 08:27:18;;;;;;;16.45;3.47;;;;;;;15.20;92.56;102432.81;4978674;28;20469;-60
2023/05/23 08:29:43;;;;;;;14.50;3.13;;;;;;;15.39;89.40;102433.16;4983073;28;20030;-62
2023/05/23 08:32:08;;;;;;;18.38;3.60;;;;;;;15.74;87.41;102438.34;4974246;28;20030;-63
2023/05/23 08:34:33;;;;;;;13.77;3.25;;;;;;;15.22;89.21;102446.03;4975632;28;20050;-61
2023/05/23 08:36:59;;;;;;;19.58;3.00;;;;;;;15.23;91.09;102443.34;4979569;28;20034;-59
2023/05/23 08:39:25;;;;;;;17.48;3.45;;;;;;;15.10;90.44;102445.47;4987772;28;20029;-66
2023/05/23 08:41:51;;;;;;;26.58;3.78;;;;;;;15.07;91.96;102436.72;4987303;28;20088;-60
2023/05/23 08:44:16;;;;;;;17.80;3.22;;;;;;;15.00;93.07;102447.53;4984063;28;20034;-58
2023/05/23 08:46:45;;;;;;;16.10;3.25;;;;;;;14.91;93.12;102445.13;4979624;28;20061;-59
2023/05/23 08:49:13;;;;;;;17.58;3.67;;;;;;;14.96;92.36;102440.53;4989869;28;20030;-60
2023/05/23 08:51:41;;;;;;;19.73;3.58;;;;;;;15.08;91.57;102439.34;4980233;28;20054;-60
2023/05/23 08:54:08;;;;;;;22.25;3.65;;;;;;;15.13;91.33;102442.75;4972153;28;20394;-59
2023/05/23 08:56:35;;;;;;;19.95;4.00;;;;;;;15.62;89.49;102439.59;4975500;28;20026;-60
2023/05/23 08:59:00;;;;;;;20.40;3.47;;;;;;;15.70;89.98;102441.13;4978643;28;20034;-60
2023/05/23 09:01:26;;;;;;;15.02;3.58;;;;;;;15.26;88.12;102453.03;4972351;28;20033;-59
2023/05/23 09:03:51;;;;;;;18.77;3.63;;;;;;;15.32;88.27;102444.88;4967833;28;20038;-61
2023/05/23 09:06:20;;;;;;;17.90;3.30;;;;;;;15.44;88.40;102448.13;4969687;28;20366;-62
2023/05/23 09:08:45;;;;;;;19.60;3.03;;;;;;;15.79;86.08;102454.16;4988572;28;20026;-62
2023/05/23 09:11:12;;;;;;;22.77;3.42;;;;;;;15.58;88.62;102456.53;4984923;28;20102;-62
2023/05/23 09:13:39;;;;;;;15.38;3.25;;;;;;;16.07;85.42;102461.31;4972725;28;20039;-62
2023/05/23 09:16:15;;;;;;;17.30;3.35;;;;;;;16.02;87.42;102456.13;4981198;28;20057;-63
2023/05/23 09:18:42;;;;;;;15.50;3.72;;;;;;;16.35;85.38;102462.22;4971360;28;20027;-60
2023/05/23 09:21:09;;;;;;;12.30;2.83;;;;;;;16.04;82.75;102459.63;4971102;28;20019;-59
2023/05/23 09:23:36;;;;;;;21.90;3.50;;;;;;;16.52;85.08;102464.31;4970902;28;20390;-60
2023/05/23 09:26:06;;;;;;;22.75;3.90;;;;;;;16.41;84.03;102467.34;4976427;28;20030;-60
2023/05/23 09:28:32;;;;;;;14.45;2.75;;;;;;;17.08;83.68;102459.81;4989292;28;20042;-62
2023/05/23 09:31:02;;;;;;;15.95;3.55;;;;;;;17.39;77.75;102474.66;4988161;28;20022;-62
2023/05/23 09:33:41;;;;;;;13.75;3.28;;;;;;;17.15;78.56;102465.75;4975171;28;20035;-61
2023/05/23 09:36:07;;;;;;;17.55;3.30;;;;;;;17.46;80.75;102463.78;4974760;28;20598;-63
2023/05/23 09:38:37;;;;;;;18.00;3.50;;;;;;;17.25;83.65;102476.97;4982761;28;20109;-60
2023/05/23 09:41:02;;;;;;;14.73;3.22;;;;;;;16.86;81.95;102467.66;4980390;28;20030;-60
2023/05/23 09:43:28;;;;;;;18.65;3.95;;;;;;;16.83;82.85;102478.41;4974930;28;20387;-58
2023/05/23 09:45:54;;;;;;;14.90;3.08;;;;;;;16.79;82.40;102469.63;4977246;28;20046;-59
2023/05/23 09:48:28;;;;;;;16.85;3.47;;;;;;;17.35;81.03;102473.03;4976316;28;20030;-62
2023/05/23 09:50:53;;;;;;;20.00;3.50;;;;;;;17.37;81.19;102473.00;4968924;28;20034;-59
2023/05/23 09:53:21;;;;;;;23.45;4.10;;;;;;;17.01;85.18;102477.75;4985935;28;20022;-60
2023/05/23 09:55:49;;;;;;;14.70;3.60;;;;;;;16.55;87.59;102478.41;4985258;28;20422;-60
2023/05/23 09:58:16;;;;;;;17.30;3.87;;;;;;;16.83;86.13;102484.59;4986263;28;20093;-60
2023/05/23 10:00:42;;;;;;;16.95;4.03;;;;;;;16.67;87.50;102476.25;4986054;28;20505;-62
2023/05/23 10:03:12;;;;;;;20.75;3.72;;;;;;;16.17;88.57;102492.00;4985313;28;20037;-61
2023/05/23 10:05:45;;;;;;;13.40;3.33;;;;;;;16.62;86.44;102495.03;4974724;28;20081;-62
2023/05/23 10:08:18;;;;;;;20.05;4.10;;;;;;;16.82;85.26;102504.13;4969670;28;20038;-61
2023/05/23 10:11:12;;;;;;;29.20;4.55;;;;;;;16.54;85.44;102495.31;4985661;28;20133;-60
2023/05/23 10:13:40;;;;;;;23.45;4.07;;;;;;;16.70;85.85;102492.13;4987760;28;20034;-63
2023/05/23 10:16:15;;;;;;;21.52;3.67;;;;;;;16.30;87.70;102499.63;4986507;28;20412;-62
2023/05/23 10:18:43;;;;;;;15.60;3.63;;;;;;;16.65;86.95;102484.28;4988730;28;20029;-65
2023/05/23 10:21:11;;;;;;;20.10;4.38;;;;;;;16.72;85.45;102490.28;4972119;28;20038;-60
2023/05/23 10:23:37;;;;;;;11.82;3.33;;;;;;;16.74;85.28;102498.22;4968061;28;20019;-60
2023/05/23 10:26:06;;;;;;;18.10;3.90;;;;;;;16.93;82.48;102495.78;4965568;28;20224;-60
2023/05/23 10:28:32;;;;;;;14.50;3.30;;;;;;;17.13;84.51;102497.78;4968883;28;20019;-60
2023/05/23 10:30:58;;;;;;;26.30;3.60;;;;;;;17.18;84.51;102498.50;4970488;28;20481;-62
2023/05/23 10:33:27;;;;;;;15.32;3.22;;;;;;;17.24;84.32;102507.19;4970899;28;20050;-61
2023/05/23 10:35:57;;;;;;;18.30;3.20;;;;;;;17.09;83.44;102498.81;4959412;28;20393;-59
2023/05/23 10:38:45;;;;;;;14.40;3.60;;;;;;;17.14;85.88;102502.19;4999511;28;20024;-61
2023/05/23 10:41:15;;;;;;;23.20;3.95;;;;;;;16.79;86.19;102515.75;4975372;28;20520;-60
2023/05/23 10:44:11;;;;;;;15.23;3.17;;;;;;;16.84;84.71;102504.09;4973818;28;20118;-60
2023/05/23 10:46:53;;;;;;;14.13;3.50;;;;;;;17.29;81.80;102508.78;4974454;28;20105;-61
2023/05/23 10:49:18;;;;;;;20.15;3.63;;;;;;;16.97;83.54;102505.41;4973268;28;20023;-61
2023/05/23 10:51:48;;;;;;;18.73;3.58;;;;;;;17.04;82.76;102506.09;4970738;28;20030;-59
2023/05/23 10:54:14;;;;;;;19.77;3.45;;;;;;;16.80;83.77;102506.00;4974794;28;20062;-59
2023/05/23 10:56:39;;;;;;;12.43;2.50;;;;;;;16.84;82.78;102510.28;4976468;28;20026;-60
2023/05/23 10:59:05;;;;;;;13.77;2.90;;;;;;;16.74;82.03;102515.03;4974888;28;20465;-61
2023/05/23 11:01:30;;;;;;;19.83;2.72;;;;;;;16.73;81.50;102523.94;4966307;28;20027;-60
2023/05/23 11:03:56;;;;;;;21.55;3.72;;;;;;;16.73;81.67;102517.75;4968941;28;20519;-60
2023/05/23 11:06:37;;;;;;;20.52;3.10;;;;;;;16.87;82.98;102504.88;4973301;28;20489;-59
2023/05/23 11:09:09;;;;;;;21.38;3.80;;;;;;;17.23;82.51;102509.00;4984025;28;20048;-61